Time;durP1;ratioP1;P1;durP2;ratioP2;P2;SDS_P1;SDS_P2;PMS_P1;PMS_P2;Temp;Humidity;BMP_temperature;BMP_pressure;BME280_temperature;BME280_humidity;BME280_pressure;Samples;Min_cycle;Max_cycle;Signal;HPM_P1;HPM_P2
2021/04/04 00:01:54;;;;;;;2.28;0.40;;;6.80;99.90;;;;;;10517327;28;20151;-46
2021/04/04 00:07:15;;;;;;;0.77;0.38;;;6.80;99.90;;;;;;10515784;28;20028;-46
2021/04/04 00:12:37;;;;;;;2.67;1.15;;;6.80;99.90;;;;;;10518329;28;20501;-46
2021/04/04 00:17:58;;;;;;;2.17;0.50;;;6.70;99.90;;;;;;10503154;28;20075;-46
2021/04/04 00:23:19;;;;;;;5.60;0.60;;;6.80;99.90;;;;;;10516618;28;20090;-46
2021/04/04 00:28:40;;;;;;;4.22;0.40;;;6.70;99.90;;;;;;10517774;28;20419;-46
2021/04/04 00:34:01;;;;;;;3.22;0.57;;;6.70;99.90;;;;;;10519968;28;20498;-46
2021/04/04 00:39:22;;;;;;;4.40;0.70;;;6.70;99.90;;;;;;10510767;28;20035;-46
2021/04/04 00:44:43;;;;;;;6.95;0.98;;;6.70;99.90;;;;;;10519090;28;20150;-46
2021/04/04 00:50:06;;;;;;;2.83;0.88;;;6.70;99.90;;;;;;10516249;28;20036;-46
2021/04/04 00:55:27;;;;;;;8.43;0.75;;;6.70;99.90;;;;;;10490485;28;20049;-46
2021/04/04 01:00:48;;;;;;;1.23;0.25;;;6.60;99.90;;;;;;10470958;28;20048;-46
2021/04/04 01:06:11;;;;;;;1.48;1.00;;;6.70;99.90;;;;;;10467052;28;20100;-46
2021/04/04 01:11:45;;;;;;;1.23;0.40;;;6.70;99.90;;;;;;10468219;28;20056;-46
2021/04/04 01:17:07;;;;;;;1.92;0.50;;;6.70;99.90;;;;;;10467331;28;20531;-46
2021/04/04 01:22:49;;;;;;;1.73;0.55;;;6.70;99.90;;;;;;10469755;28;20089;-46
2021/04/04 01:28:24;;;;;;;4.63;1.88;;;6.60;99.90;;;;;;10469832;28;20473;-46
2021/04/04 01:33:52;;;;;;;2.40;0.63;;;6.70;99.90;;;;;;10468782;28;20062;-46
2021/04/04 01:39:15;;;;;;;1.08;0.45;;;6.60;99.90;;;;;;10467575;28;20037;-46
2021/04/04 01:44:39;;;;;;;2.70;0.57;;;6.60;99.90;;;;;;10470505;28;20248;-47
2021/04/04 01:50:02;;;;;;;1.40;0.40;;;6.60;99.90;;;;;;10473343;28;20358;-46
2021/04/04 01:55:24;;;;;;;2.30;0.70;;;6.60;99.90;;;;;;10489128;28;20087;-46
2021/04/04 02:00:46;;;;;;;2.10;0.93;;;6.60;99.90;;;;;;10516886;28;20036;-46
2021/04/04 02:06:07;;;;;;;1.55;0.40;;;6.70;99.90;;;;;;10510788;28;20138;-46
2021/04/04 02:11:31;;;;;;;1.30;0.50;;;6.70;99.90;;;;;;10517025;28;20303;-46
2021/04/04 02:16:55;;;;;;;2.80;0.50;;;6.60;99.90;;;;;;10515889;28;20071;-46
2021/04/04 02:22:17;;;;;;;6.85;0.57;;;6.60;99.90;;;;;;10516416;28;20160;-46
2021/04/04 02:27:43;;;;;;;3.35;1.85;;;6.50;99.90;;;;;;10514739;28;20038;-46
2021/04/04 02:33:19;;;;;;;1.17;0.22;;;6.50;99.90;;;;;;10521525;28;20051;-46
2021/04/04 02:38:51;;;;;;;4.40;0.75;;;6.50;99.90;;;;;;10521341;27;20490;-46
2021/04/04 02:44:13;;;;;;;1.45;0.40;;;6.40;99.90;;;;;;10517868;27;20043;-46
2021/04/04 02:49:35;;;;;;;8.57;0.77;;;6.50;99.90;;;;;;10495804;28;20048;-46
2021/04/04 02:54:59;;;;;;;1.58;0.70;;;6.50;99.90;;;;;;10519626;28;20055;-46
2021/04/04 03:00:21;;;;;;;1.90;0.93;;;6.40;99.90;;;;;;10523831;28;20066;-46
2021/04/04 03:05:44;;;;;;;1.35;0.40;;;6.50;99.90;;;;;;10514189;28;20307;-46
2021/04/04 03:11:06;;;;;;;6.53;1.25;;;6.50;99.90;;;;;;10521736;28;20036;-46
2021/04/04 03:16:29;;;;;;;1.52;0.60;;;6.50;99.90;;;;;;10519834;28;20029;-46
2021/04/04 03:21:52;;;;;;;2.65;1.13;;;6.50;99.90;;;;;;10519919;28;20465;-46
2021/04/04 03:27:13;;;;;;;1.02;0.32;;;6.50;99.90;;;;;;10518404;28;20032;-46
2021/04/04 03:32:36;;;;;;;1.45;0.73;;;6.40;99.90;;;;;;10522628;28;20547;-46
2021/04/04 03:38:01;;;;;;;1.13;0.40;;;6.40;99.90;;;;;;10513672;28;20463;-46
2021/04/04 03:43:25;;;;;;;4.15;0.43;;;6.40;99.90;;;;;;10519062;28;20074;-46
2021/04/04 03:48:46;;;;;;;1.55;0.70;;;6.40;99.90;;;;;;10518874;28;20112;-46
2021/04/04 03:54:12;;;;;;;2.13;0.32;;;6.40;99.90;;;;;;10521642;28;20048;-46
2021/04/04 03:59:37;;;;;;;1.25;0.30;;;6.40;99.90;;;;;;10518157;28;20040;-46
2021/04/04 04:04:59;;;;;;;2.33;0.50;;;6.40;99.90;;;;;;10514878;28;20455;-46
2021/04/04 04:10:21;;;;;;;1.40;0.57;;;6.40;99.90;;;;;;10516753;28;20101;-46
2021/04/04 04:15:43;;;;;;;1.15;0.30;;;6.40;99.90;;;;;;10517789;28;20036;-46
2021/04/04 04:21:05;;;;;;;1.35;0.40;;;6.50;99.90;;;;;;10514646;28;20040;-46
2021/04/04 04:26:27;;;;;;;1.40;0.30;;;6.40;99.90;;;;;;10519139;28;20038;-46
2021/04/04 04:31:56;;;;;;;0.20;0.10;;;6.40;99.90;;;;;;10516618;28;20398;-46
2021/04/04 04:37:18;;;;;;;1.02;0.38;;;6.30;99.90;;;;;;10515743;28;20459;-46
2021/04/04 04:42:45;;;;;;;1.70;0.30;;;6.30;99.90;;;;;;10520081;28;20085;-46
2021/04/04 04:48:08;;;;;;;1.67;0.60;;;6.30;99.90;;;;;;10519106;28;20613;-46
2021/04/04 04:53:29;;;;;;;0.98;0.30;;;6.30;99.90;;;;;;10515874;28;20490;-46
2021/04/04 04:58:52;;;;;;;0.32;0.15;;;6.40;99.90;;;;;;10517181;28;20070;-46
2021/04/04 05:04:13;;;;;;;1.75;0.68;;;6.30;99.90;;;;;;10513452;28;20078;-46
2021/04/04 05:09:35;;;;;;;1.10;0.25;;;6.30;99.90;;;;;;10513828;28;20488;-46
2021/04/04 05:14:56;;;;;;;2.47;0.17;;;6.30;99.90;;;;;;10519379;28;20084;-46
2021/04/04 05:20:18;;;;;;;8.68;0.55;;;6.20;99.90;;;;;;10517167;28;20043;-46
2021/04/04 05:25:39;;;;;;;1.27;0.40;;;6.20;99.90;;;;;;10513635;28;20047;-46
2021/04/04 05:31:02;;;;;;;0.60;0.28;;;6.30;99.90;;;;;;10517190;28;20122;-46
2021/04/04 05:36:23;;;;;;;2.33;0.60;;;6.20;99.90;;;;;;10514680;28;20104;-46
2021/04/04 05:41:53;;;;;;;0.88;0.40;;;6.20;99.90;;;;;;10520129;28;20319;-46
2021/04/04 05:47:22;;;;;;;1.35;0.40;;;6.30;99.90;;;;;;10517627;28;20032;-46
2021/04/04 05:53:00;;;;;;;;;;;6.30;99.90;;;;;;10516761;28;20035;-46
2021/04/04 05:58:33;;;;;;;5.65;0.60;;;6.30;99.90;;;;;;10505155;28;20101;-46
2021/04/04 06:04:05;;;;;;;0.43;0.25;;;6.30;99.90;;;;;;10516088;28;20040;-46
2021/04/04 06:09:41;;;;;;;2.17;0.75;;;6.40;99.90;;;;;;10524518;28;20490;-47
2021/04/04 06:15:23;;;;;;;2.45;0.60;;;6.30;99.90;;;;;;10516798;28;20207;-46
2021/04/04 06:21:10;;;;;;;3.53;0.65;;;6.30;99.90;;;;;;10511861;28;20045;-46
2021/04/04 06:27:03;;;;;;;1.63;0.60;;;6.30;99.90;;;;;;10523788;28;20158;-46
2021/04/04 06:32:34;;;;;;;3.15;0.63;;;6.40;99.90;;;;;;10496257;28;20044;-47
2021/04/04 06:38:24;;;;;;;0.40;0.25;;;6.40;99.90;;;;;;10495794;28;20104;-46
2021/04/04 06:44:02;;;;;;;1.17;0.28;;;6.50;99.90;;;;;;10511294;28;20130;-46
2021/04/04 06:50:01;;;;;;;2.03;0.95;;;6.40;99.90;;;;;;10508027;28;20039;-46
2021/04/04 06:55:34;;;;;;;1.98;0.50;;;6.40;99.90;;;;;;10490614;28;20105;-46
2021/04/04 07:01:26;;;;;;;1.60;0.40;;;6.40;99.90;;;;;;10512465;28;20105;-46
2021/04/04 07:06:47;;;;;;;6.18;0.82;;;6.40;99.90;;;;;;10514491;28;20089;-46
2021/04/04 07:12:34;;;;;;;4.15;1.17;;;6.50;99.90;;;;;;10503671;28;20039;-47
2021/04/04 07:18:02;;;;;;;2.50;0.98;;;6.40;99.90;;;;;;10509746;27;20050;-47
2021/04/04 07:23:26;;;;;;;11.97;1.20;;;6.50;99.90;;;;;;10503752;28;20902;-47
2021/04/04 07:29:09;;;;;;;2.20;0.80;;;6.50;99.90;;;;;;10511049;27;20032;-47
2021/04/04 07:34:42;;;;;;;13.10;1.27;;;6.60;99.90;;;;;;10510610;28;20036;-47
2021/04/04 07:40:14;;;;;;;3.70;0.80;;;6.60;99.90;;;;;;10514027;28;20071;-47
2021/04/04 07:45:39;;;;;;;4.15;0.73;;;6.60;99.90;;;;;;10509505;28;20068;-47
2021/04/04 07:51:20;;;;;;;1.50;0.65;;;6.60;99.90;;;;;;10503522;28;20043;-47
2021/04/04 07:57:10;;;;;;;1.45;1.02;;;6.60;99.90;;;;;;10508321;28;20059;-47
2021/04/04 08:03:00;;;;;;;2.10;0.22;;;6.70;99.90;;;;;;10511781;28;20040;-47
2021/04/04 08:08:28;;;;;;;2.13;0.17;;;6.70;99.90;;;;;;10510861;28;20471;-47
2021/04/04 08:14:02;;;;;;;3.63;0.77;;;6.70;99.90;;;;;;10505116;28;20705;-47
2021/04/04 08:19:25;;;;;;;1.80;0.43;;;6.70;99.90;;;;;;10508555;28;20051;-47
2021/04/04 08:24:53;;;;;;;2.42;0.90;;;6.70;99.90;;;;;;10512049;28;20040;-47
2021/04/04 08:30:33;;;;;;;2.45;0.63;;;6.80;99.90;;;;;;10491741;28;20204;-47
2021/04/04 08:35:57;;;;;;;2.33;0.50;;;6.90;99.90;;;;;;10494560;28;20035;-47
2021/04/04 08:41:20;;;;;;;1.33;0.40;;;6.90;99.90;;;;;;10509525;28;20036;-47
2021/04/04 08:46:56;;;;;;;1.40;0.50;;;7.00;99.90;;;;;;10512737;28;20687;-47
2021/04/04 08:52:22;;;;;;;3.22;0.63;;;7.10;99.90;;;;;;10498431;28;20586;-47
2021/04/04 08:57:51;;;;;;;1.27;0.38;;;7.10;99.90;;;;;;10468132;28;20064;-48
2021/04/04 09:03:24;;;;;;;2.57;1.07;;;7.20;99.90;;;;;;10467591;28;20368;-47
2021/04/04 09:08:45;;;;;;;0.95;0.30;;;7.30;99.90;;;;;;10470880;28;20278;-47
2021/04/04 09:14:07;;;;;;;2.28;0.70;;;7.30;99.90;;;;;;10450401;28;20487;-47
2021/04/04 09:19:36;;;;;;;2.65;0.77;;;7.50;99.90;;;;;;10445363;28;20051;-47
2021/04/04 09:25:06;;;;;;;5.65;0.88;;;7.60;99.90;;;;;;10462969;28;20055;-47
2021/04/04 09:30:33;;;;;;;5.50;1.13;;;7.70;99.90;;;;;;10449603;28;20177;-47
2021/04/04 09:35:58;;;;;;;2.88;1.63;;;7.70;99.90;;;;;;10461739;28;20118;-47
2021/04/04 09:41:19;;;;;;;6.15;1.52;;;7.70;99.90;;;;;;10471699;28;20031;-47
2021/04/04 09:46:55;;;;;;;5.75;1.65;;;7.80;99.90;;;;;;10474568;28;20391;-47
2021/04/04 09:52:26;;;;;;;6.43;1.92;;;7.80;99.90;;;;;;10468365;28;20279;-47
2021/04/04 09:58:28;;;;;;;6.88;1.10;;;7.90;99.90;;;;;;10471134;28;20049;-47
2021/04/04 10:04:15;;;;;;;4.25;1.55;;;7.80;99.90;;;;;;10464474;28;20044;-47
2021/04/04 10:09:40;;;;;;;8.35;2.58;;;7.90;99.90;;;;;;10474031;28;20312;-47
2021/04/04 10:15:08;;;;;;;4.75;1.98;;;7.90;99.90;;;;;;10475312;28;20749;-47
2021/04/04 10:20:34;;;;;;;8.13;1.67;;;8.00;99.90;;;;;;10469220;28;20140;-47
2021/04/04 10:26:09;;;;;;;10.38;2.00;;;8.10;99.90;;;;;;10459382;28;20060;-53
2021/04/04 10:31:47;;;;;;;4.25;1.30;;;8.10;99.90;;;;;;10460443;28;20087;-47
2021/04/04 10:37:08;;;;;;;4.55;1.48;;;8.10;99.90;;;;;;10466854;28;20124;-47
2021/04/04 10:42:29;;;;;;;3.17;1.55;;;8.20;99.90;;;;;;10463722;28;20428;-47
2021/04/04 10:48:06;;;;;;;5.93;1.95;;;8.20;99.90;;;;;;10463426;28;20472;-47
2021/04/04 10:53:28;;;;;;;4.43;1.35;;;8.40;99.90;;;;;;10462174;28;20514;-46
2021/04/04 10:58:51;;;;;;;4.13;0.93;;;8.30;99.90;;;;;;10512854;27;20127;-46
2021/04/04 11:04:13;;;;;;;5.40;1.50;;;8.40;99.90;;;;;;10504390;28;20078;-46
2021/04/04 11:09:34;;;;;;;5.82;0.98;;;8.60;99.90;;;;;;10510583;27;20495;-46
2021/04/04 11:14:56;;;;;;;2.10;0.70;;;8.60;99.90;;;;;;10512401;28;20055;-46
2021/04/04 11:20:19;;;;;;;3.03;0.80;;;8.70;99.90;;;;;;10507096;28;20039;-46
2021/04/04 11:25:40;;;;;;;2.95;0.90;;;9.00;99.90;;;;;;10504339;28;20032;-46
2021/04/04 11:31:02;;;;;;;2.03;0.65;;;9.10;99.90;;;;;;10506566;28;20039;-46
2021/04/04 11:36:36;;;;;;;2.45;1.10;;;9.30;99.90;;;;;;10513450;28;20043;-46
2021/04/04 11:42:01;;;;;;;3.78;1.23;;;9.40;99.90;;;;;;10519557;28;20308;-46
2021/04/04 11:47:23;;;;;;;4.15;0.75;;;9.60;99.90;;;;;;10519783;28;20142;-46
2021/04/04 11:52:44;;;;;;;5.30;1.20;;;9.60;99.90;;;;;;10514503;28;20703;-46
2021/04/04 11:58:05;;;;;;;1.75;0.95;;;9.60;99.90;;;;;;10522649;28;20085;-46
2021/04/04 12:03:27;;;;;;;1.77;0.63;;;9.60;99.90;;;;;;10529395;28;20495;-46
2021/04/04 12:08:48;;;;;;;3.90;1.10;;;9.60;99.90;;;;;;10529524;28;20059;-46
2021/04/04 12:14:09;;;;;;;6.50;1.67;;;9.40;99.90;;;;;;10528685;28;20073;-46
2021/04/04 12:19:31;;;;;;;2.70;0.77;;;9.70;99.90;;;;;;10525934;28;20078;-46
2021/04/04 12:24:52;;;;;;;2.55;1.08;;;9.80;99.90;;;;;;10528213;28;20240;-46
2021/04/04 12:30:34;;;;;;;2.97;1.00;;;9.70;99.90;;;;;;10530157;28;20151;-46
2021/04/04 12:35:55;;;;;;;9.43;1.40;;;10.00;99.90;;;;;;10525260;28;20039;-46
2021/04/04 12:41:16;;;;;;;4.80;1.48;;;10.30;99.90;;;;;;10526276;28;20024;-46
2021/04/04 12:46:37;;;;;;;3.63;1.02;;;10.30;99.90;;;;;;10527702;28;20054;-46
2021/04/04 12:51:58;;;;;;;4.10;1.38;;;10.30;99.90;;;;;;10526346;28;20152;-46
2021/04/04 12:57:19;;;;;;;1.75;0.75;;;10.10;99.90;;;;;;10520824;28;20054;-46
2021/04/04 13:02:40;;;;;;;5.22;0.75;;;10.20;99.90;;;;;;10520035;28;20059;-46
2021/04/04 13:08:08;;;;;;;5.35;2.03;;;10.20;99.90;;;;;;10501236;28;20040;-46
2021/04/04 13:13:35;;;;;;;10.33;1.33;;;10.50;99.90;;;;;;10498099;28;20779;-46
2021/04/04 13:18:56;;;;;;;4.80;1.23;;;10.60;99.90;;;;;;10499506;28;20035;-46
2021/04/04 13:24:18;;;;;;;4.05;1.80;;;9.90;99.90;;;;;;10500083;28;20032;-46
2021/04/04 13:29:39;;;;;;;2.70;0.95;;;9.60;99.90;;;;;;10503541;28;20042;-46
2021/04/04 13:35:00;;;;;;;7.57;1.35;;;9.80;99.90;;;;;;10498810;28;20044;-46
2021/04/04 13:40:23;;;;;;;2.25;0.55;;;9.80;99.90;;;;;;10494778;28;20040;-46
2021/04/04 13:45:46;;;;;;;7.18;1.33;;;10.20;99.90;;;;;;10499262;28;20354;-46
2021/04/04 13:51:18;;;;;;;2.65;0.88;;;10.60;99.90;;;;;;10502328;28;20266;-46
2021/04/04 13:56:48;;;;;;;2.08;0.50;;;10.40;99.90;;;;;;10471246;28;20079;-46
2021/04/04 14:02:17;;;;;;;4.55;1.60;;;10.60;99.90;;;;;;10458977;28;20047;-45
2021/04/04 14:07:38;;;;;;;3.63;1.48;;;10.80;99.90;;;;;;10456925;28;20079;-46
2021/04/04 14:12:59;;;;;;;4.57;1.48;;;11.30;99.90;;;;;;10455530;28;20059;-45
2021/04/04 14:18:24;;;;;;;3.30;1.08;;;11.80;99.90;;;;;;10454646;28;20036;-46
2021/04/04 14:23:45;;;;;;;2.97;1.27;;;11.40;99.90;;;;;;10463247;28;20048;-46
2021/04/04 14:29:10;;;;;;;3.85;1.05;;;11.40;99.90;;;;;;10447132;28;20147;-45
2021/04/04 14:34:32;;;;;;;5.78;2.05;;;11.70;99.90;;;;;;10462887;28;20495;-45
2021/04/04 14:39:53;;;;;;;6.68;1.38;;;11.10;99.90;;;;;;10468862;28;20512;-45
2021/04/04 14:45:14;;;;;;;4.03;1.70;;;11.00;99.90;;;;;;10455071;28;20047;-46
2021/04/04 14:50:35;;;;;;;4.57;1.10;;;11.10;99.90;;;;;;10452500;28;20102;-45
2021/04/04 14:55:59;;;;;;;4.95;1.38;;;11.10;99.90;;;;;;10461936;28;20049;-46
2021/04/04 15:01:20;;;;;;;5.45;1.30;;;11.10;99.90;;;;;;10467672;28;20044;-46
2021/04/04 15:06:41;;;;;;;6.53;1.40;;;11.00;99.90;;;;;;10455020;28;20040;-45
2021/04/04 15:12:02;;;;;;;4.55;1.25;;;10.80;99.90;;;;;;10460037;28;20046;-46
2021/04/04 15:17:23;;;;;;;4.90;1.52;;;11.00;99.90;;;;;;10457920;28;20033;-46
2021/04/04 15:22:44;;;;;;;3.50;0.93;;;11.10;99.90;;;;;;10443852;28;20029;-46
2021/04/04 15:28:06;;;;;;;4.97;1.85;;;11.10;99.90;;;;;;10444853;28;20047;-46
2021/04/04 15:33:27;;;;;;;6.97;2.00;;;10.80;99.90;;;;;;10459585;28;20162;-45
2021/04/04 15:38:48;;;;;;;3.80;1.30;;;10.90;99.90;;;;;;10463904;28;20064;-46
2021/04/04 15:44:09;;;;;;;3.80;1.48;;;11.00;99.90;;;;;;10459332;28;20052;-45
2021/04/04 15:49:30;;;;;;;4.22;1.85;;;10.90;99.90;;;;;;10460537;28;20498;-46
2021/04/04 15:54:51;;;;;;;4.60;1.45;;;10.70;99.90;;;;;;10467813;28;20048;-45
2021/04/04 16:00:14;;;;;;;3.65;1.48;;;10.80;99.90;;;;;;10502710;27;20068;-45
2021/04/04 16:05:35;;;;;;;8.27;1.50;;;10.50;99.90;;;;;;10493400;28;20566;-45
2021/04/04 16:11:04;;;;;;;4.45;0.98;;;10.50;99.90;;;;;;10500810;28;20031;-45
2021/04/04 16:16:25;;;;;;;3.67;1.17;;;10.30;99.90;;;;;;10508937;28;20039;-45
2021/04/04 16:21:46;;;;;;;2.35;1.05;;;10.30;99.90;;;;;;10502349;28;20021;-46
2021/04/04 16:27:07;;;;;;;5.03;0.90;;;10.00;99.90;;;;;;10502155;28;20093;-45
2021/04/04 16:32:28;;;;;;;1.67;0.70;;;9.50;99.90;;;;;;10503015;28;20503;-45
2021/04/04 16:37:53;;;;;;;2.75;0.85;;;9.10;99.90;;;;;;10506402;28;20039;-45
2021/04/04 16:43:14;;;;;;;2.42;0.63;;;9.20;99.90;;;;;;10500797;27;20031;-45
2021/04/04 16:48:35;;;;;;;2.55;1.63;;;9.20;99.90;;;;;;10491164;28;20427;-46
2021/04/04 16:53:56;;;;;;;6.57;1.20;;;9.20;99.90;;;;;;10496877;28;20057;-45
2021/04/04 16:59:17;;;;;;;3.80;0.80;;;9.10;99.90;;;;;;10457895;28;20623;-46
2021/04/04 17:04:38;;;;;;;3.22;0.77;;;9.00;99.90;;;;;;10457793;28;20142;-46
2021/04/04 17:09:59;;;;;;;2.85;1.23;;;8.90;99.90;;;;;;10457918;28;20044;-45
2021/04/04 17:15:22;;;;;;;5.55;1.95;;;8.60;99.90;;;;;;10456551;28;20036;-45
2021/04/04 17:20:43;;;;;;;3.53;1.13;;;8.40;99.90;;;;;;10429889;28;20071;-45
2021/04/04 17:26:05;;;;;;;2.33;1.02;;;8.40;99.90;;;;;;10447971;28;20051;-45
2021/04/04 17:31:25;;;;;;;4.13;1.42;;;8.20;99.90;;;;;;10445277;28;20043;-45
2021/04/04 17:36:46;;;;;;;2.67;0.63;;;8.10;99.90;;;;;;10441430;28;20599;-45
2021/04/04 17:42:08;;;;;;;7.97;1.27;;;8.00;99.90;;;;;;10435172;28;20348;-45
2021/04/04 17:47:29;;;;;;;4.55;0.95;;;7.80;99.90;;;;;;10452490;28;20325;-45
2021/04/04 17:52:51;;;;;;;2.50;1.17;;;7.70;99.90;;;;;;10452280;28;20094;-45
2021/04/04 17:58:12;;;;;;;2.97;1.20;;;7.60;99.90;;;;;;10496552;27;20051;-45
2021/04/04 18:03:37;;;;;;;2.80;0.75;;;7.50;99.90;;;;;;10495508;27;20376;-45
2021/04/04 18:14:22;;;;;;;3.33;0.93;;;7.10;99.90;;;;;;10505473;28;20066;-45
2021/04/04 18:19:43;;;;;;;1.38;0.63;;;7.00;99.90;;;;;;10510602;27;20079;-46
2021/04/04 18:25:05;;;;;;;4.93;1.75;;;6.90;99.90;;;;;;10507004;27;20498;-45
2021/04/04 18:30:26;;;;;;;1.45;0.65;;;6.80;99.90;;;;;;10507469;28;20236;-45
2021/04/04 18:35:48;;;;;;;1.27;0.68;;;6.70;99.90;;;;;;10503847;28;20070;-45
2021/04/04 18:41:10;;;;;;;3.45;0.65;;;6.70;99.90;;;;;;10506494;28;20083;-45
2021/04/04 18:46:31;;;;;;;3.20;0.88;;;6.60;99.90;;;;;;10508118;28;20487;-45
2021/04/04 18:51:52;;;;;;;2.85;0.85;;;6.50;99.90;;;;;;10505931;28;20040;-45
2021/04/04 18:57:13;;;;;;;3.88;1.38;;;6.40;99.90;;;;;;10503343;28;20039;-45
2021/04/04 19:02:34;;;;;;;2.90;1.13;;;6.40;99.90;;;;;;10504577;28;20039;-45
2021/04/04 19:07:55;;;;;;;4.35;1.42;;;6.30;99.90;;;;;;10502393;28;20460;-45
2021/04/04 19:13:16;;;;;;;4.80;1.48;;;6.20;99.90;;;;;;10502929;28;20059;-45
2021/04/04 19:18:37;;;;;;;4.50;1.45;;;6.10;99.90;;;;;;10504568;28;20048;-45
2021/04/04 19:23:58;;;;;;;3.67;1.25;;;6.10;99.90;;;;;;10502916;28;20039;-45
2021/04/04 19:29:19;;;;;;;2.83;0.93;;;6.20;99.90;;;;;;10503633;28;20065;-45
2021/04/04 19:34:40;;;;;;;4.95;1.27;;;6.20;99.90;;;;;;10501177;28;20040;-45
2021/04/04 19:40:01;;;;;;;1.67;0.73;;;6.10;99.90;;;;;;10495435;27;20138;-45
2021/04/04 19:45:22;;;;;;;1.83;0.55;;;6.00;99.90;;;;;;10503446;27;20055;-45
2021/04/04 19:50:43;;;;;;;5.38;0.85;;;6.10;99.90;;;;;;10504201;28;20042;-46
2021/04/04 19:56:04;;;;;;;4.28;1.40;;;6.00;99.90;;;;;;10482155;27;20036;-46
2021/04/04 20:01:25;;;;;;;3.75;0.90;;;5.90;99.90;;;;;;10458280;28;20044;-46
2021/04/04 20:06:46;;;;;;;10.05;0.98;;;5.70;99.90;;;;;;10458088;28;20554;-46
2021/04/04 20:12:08;;;;;;;2.25;1.00;;;5.80;99.90;;;;;;10461820;28;20089;-46
2021/04/04 20:17:29;;;;;;;3.97;1.75;;;5.80;99.90;;;;;;10457727;28;20059;-46
2021/04/04 20:22:50;;;;;;;6.20;1.00;;;5.80;99.90;;;;;;10469583;28;20046;-46
2021/04/04 20:28:11;;;;;;;2.22;0.90;;;5.80;99.90;;;;;;10461454;28;20468;-46
2021/04/04 20:33:32;;;;;;;4.78;1.00;;;5.60;99.90;;;;;;10439132;28;20134;-46
2021/04/04 20:38:53;;;;;;;2.72;0.85;;;5.70;99.90;;;;;;10456341;28;20041;-46
2021/04/04 20:44:14;;;;;;;10.20;1.73;;;5.50;99.90;;;;;;10456002;28;22460;-46
2021/04/04 20:49:35;;;;;;;6.80;1.60;;;5.50;99.90;;;;;;10450598;28;20259;-46
2021/04/04 20:54:56;;;;;;;9.13;1.67;;;5.40;99.90;;;;;;10456063;28;20798;-46
2021/04/04 21:00:18;;;;;;;4.50;1.30;;;5.50;99.90;;;;;;10451690;28;20519;-46
2021/04/04 21:05:39;;;;;;;9.70;1.85;;;5.50;99.90;;;;;;10458954;28;20031;-46
2021/04/04 21:11:01;;;;;;;3.90;1.85;;;5.50;99.90;;;;;;10468961;28;20052;-46
2021/04/04 21:16:22;;;;;;;5.25;1.67;;;5.40;99.90;;;;;;10461049;28;20762;-46
2021/04/04 21:21:43;;;;;;;4.03;1.08;;;5.40;99.90;;;;;;10470666;28;20036;-45
2021/04/04 21:27:04;;;;;;;6.82;1.60;;;5.40;99.90;;;;;;10476775;28;20036;-46
2021/04/04 21:32:25;;;;;;;3.83;0.93;;;5.30;99.90;;;;;;10462430;28;20048;-46
2021/04/04 21:37:49;;;;;;;2.83;1.13;;;5.40;99.90;;;;;;10482347;28;20036;-46
2021/04/04 21:43:10;;;;;;;12.35;1.67;;;5.30;99.90;;;;;;10482222;28;20041;-46
2021/04/04 21:48:31;;;;;;;8.07;1.65;;;5.30;99.90;;;;;;10488699;28;20056;-46
2021/04/04 21:53:52;;;;;;;11.27;2.10;;;5.40;99.90;;;;;;10481823;28;20249;-46
2021/04/04 21:59:13;;;;;;;5.25;1.88;;;5.50;99.90;;;;;;10465965;28;20643;-46
2021/04/04 22:04:34;;;;;;;4.22;1.45;;;5.40;99.90;;;;;;10468559;28;20456;-46
2021/04/04 22:09:56;;;;;;;6.32;2.65;;;5.50;99.90;;;;;;10472173;28;20070;-46
2021/04/04 22:15:18;;;;;;;7.15;2.17;;;5.50;99.90;;;;;;10487949;28;20092;-46
2021/04/04 22:20:40;;;;;;;4.60;1.65;;;5.70;99.90;;;;;;10465609;28;20032;-46
2021/04/04 22:26:15;;;;;;;6.10;1.33;;;5.80;99.90;;;;;;10484460;28;20036;-46
2021/04/04 22:31:36;;;;;;;9.23;2.45;;;5.70;99.90;;;;;;10493678;28;20032;-46
2021/04/04 22:36:57;;;;;;;10.70;1.38;;;5.80;99.90;;;;;;10492167;28;20043;-46
2021/04/04 22:42:18;;;;;;;5.50;1.75;;;5.80;99.90;;;;;;10482483;28;20047;-46
2021/04/04 22:47:39;;;;;;;8.32;2.08;;;5.80;99.90;;;;;;10493240;28;20036;-46
2021/04/04 22:53:00;;;;;;;11.07;1.25;;;5.90;99.90;;;;;;10521887;28;20400;-46
2021/04/04 22:58:21;;;;;;;4.15;1.70;;;5.90;99.90;;;;;;10531811;28;20067;-46
2021/04/04 23:03:42;;;;;;;7.43;2.80;;;5.90;99.90;;;;;;10532060;28;20145;-46
2021/04/04 23:09:04;;;;;;;9.15;1.73;;;6.00;99.90;;;;;;10525365;28;20047;-46
2021/04/04 23:14:25;;;;;;;8.05;1.95;;;5.90;99.90;;;;;;10527801;28;20040;-46
2021/04/04 23:19:46;;;;;;;9.18;3.03;;;6.00;99.90;;;;;;10527253;28;20024;-46
2021/04/04 23:25:08;;;;;;;8.20;2.55;;;6.10;99.90;;;;;;10519878;28;20040;-46
2021/04/04 23:30:44;;;;;;;6.80;2.22;;;6.10;99.90;;;;;;10522091;28;20044;-46
2021/04/04 23:36:05;;;;;;;9.70;3.72;;;6.10;99.90;;;;;;10510038;28;20036;-46
2021/04/04 23:41:26;;;;;;;13.23;3.00;;;6.20;99.90;;;;;;10528573;28;20388;-46
2021/04/04 23:46:47;;;;;;;7.25;2.85;;;6.20;99.90;;;;;;10526920;28;20126;-46
2021/04/04 23:52:08;;;;;;;10.85;3.00;;;6.20;99.90;;;;;;10528200;28;20046;-46
2021/04/04 23:57:29;;;;;;;10.65;4.22;;;6.20;99.90;;;;;;10514554;28;20047;-46
